Terminal Aerodrome Forecast
Issued by NWS Newport/Morehead City, NC

Home | Current Version | Previous Version | Graphics & Text | Print | Product List | Glossary On
Versions: 1 2 3 4 5 6 7 8 9 10 11 12 13 14 15
000
FTUS42 KMHX 271122
TAFEWN
TAF
KEWN 271122Z 2712/2812 VRB03KT P6SM VCSH OVC050
     FM271800 12005KT 6SM -SHRA BKN050
     FM280000 VRB04KT P6SM VCSH BKN050=

USA.gov is the U.S. government's official web portal to all federal, state and local government web resources and services.